createdAt,value
2018-07-19T00:00:46.130Z,90.10
2018-07-19T00:03:33.590Z,90.00
2018-07-19T00:06:11.542Z,89.10
2018-07-19T00:08:48.894Z,87.90
2018-07-19T00:11:22.570Z,88.40
2018-07-19T00:13:55.595Z,88.30
2018-07-19T00:16:29.162Z,87.90
2018-07-19T00:19:02.881Z,87.40
2018-07-19T00:21:37.285Z,87.80
2018-07-19T00:24:10.006Z,88.30
2018-07-19T00:26:42.870Z,88.40
2018-07-19T00:29:16.033Z,88.50
2018-07-19T00:31:48.437Z,89.50
2018-07-19T00:34:21.035Z,89.10
2018-07-19T00:36:53.019Z,89.80
2018-07-19T00:39:25.928Z,89.80
2018-07-19T00:41:58.917Z,88.80
2018-07-19T00:44:31.173Z,89.80
2018-07-19T00:47:04.668Z,90.40
2018-07-19T00:49:37.060Z,90.50
2018-07-19T00:52:09.591Z,90.60
2018-07-19T00:54:42.198Z,91.20
2018-07-19T00:57:15.395Z,91.40
2018-07-19T00:59:47.870Z,92.20
2018-07-19T01:02:20.757Z,92.60
2018-07-19T01:04:52.900Z,93.00
2018-07-19T01:07:24.895Z,93.30
2018-07-19T01:09:58.350Z,93.40
2018-07-19T01:12:30.547Z,93.60
2018-07-19T01:15:03.425Z,93.80
2018-07-19T01:17:36.782Z,93.30
2018-07-19T01:20:09.971Z,93.50
2018-07-19T01:22:43.027Z,93.20
2018-07-19T01:25:15.495Z,92.80
2018-07-19T01:27:48.512Z,92.10
2018-07-19T01:30:20.742Z,92.50
2018-07-19T01:32:53.385Z,92.60
2018-07-19T01:35:27.383Z,91.80
2018-07-19T01:38:01.869Z,92.00
2018-07-19T01:40:34.290Z,92.10
2018-07-19T01:43:06.380Z,91.90
2018-07-19T01:45:39.721Z,91.10
2018-07-19T01:48:12.578Z,91.00
2018-07-19T01:50:45.418Z,91.10
2018-07-19T01:53:17.685Z,91.10
2018-07-19T01:55:49.805Z,91.60
2018-07-19T01:58:22.463Z,90.40
2018-07-19T02:00:55.883Z,90.60
2018-07-19T02:03:28.279Z,91.20
2018-07-19T02:06:02.222Z,92.00
2018-07-19T02:08:35.519Z,91.70
2018-07-19T02:11:07.629Z,92.10
2018-07-19T02:13:40.133Z,92.90
2018-07-19T02:16:12.498Z,93.20
2018-07-19T02:18:47.335Z,93.10
2018-07-19T02:21:20.784Z,93.60
2018-07-19T02:23:54.313Z,93.50
2018-07-19T02:26:27.084Z,93.50
2018-07-19T02:28:59.235Z,93.40
2018-07-19T02:31:33.143Z,93.60
2018-07-19T02:34:05.874Z,93.90
2018-07-19T02:36:38.182Z,93.70
2018-07-19T02:39:12.565Z,93.20
2018-07-19T02:41:45.406Z,94.00
2018-07-19T02:46:52.717Z,93.90
2018-07-19T02:49:25.884Z,94.00
2018-07-19T02:51:57.736Z,94.50
2018-07-19T02:54:31.819Z,94.70
2018-07-19T02:57:04.314Z,94.80
2018-07-19T02:59:36.915Z,94.60
2018-07-19T03:02:10.330Z,94.80
2018-07-19T03:04:43.174Z,94.90
2018-07-19T03:07:15.569Z,94.90
2018-07-19T03:09:47.561Z,94.70
2018-07-19T03:12:19.986Z,94.20
2018-07-19T03:14:52.013Z,93.20
2018-07-19T03:17:24.433Z,93.40
2018-07-19T03:19:57.181Z,94.10
2018-07-19T03:22:30.405Z,94.40
2018-07-19T03:25:02.865Z,95.20
2018-07-19T03:27:36.037Z,95.60
2018-07-19T03:30:08.336Z,95.70
2018-07-19T03:32:42.023Z,94.80
2018-07-19T03:35:13.597Z,95.10
2018-07-19T03:37:45.069Z,95.00
2018-07-19T03:40:16.942Z,95.80
2018-07-19T03:42:49.605Z,95.60
2018-07-19T03:45:23.304Z,95.80
2018-07-19T03:47:55.479Z,95.20
2018-07-19T03:50:38.055Z,96.50
2018-07-19T03:53:10.191Z,95.80
2018-07-19T03:55:41.118Z,95.50
2018-07-19T03:58:13.168Z,95.90
2018-07-19T04:00:45.144Z,95.20
2018-07-19T04:03:17.494Z,95.50
2018-07-19T04:05:50.903Z,95.80
2018-07-19T04:08:23.258Z,95.20
2018-07-19T04:10:57.024Z,95.40
2018-07-19T04:13:30.023Z,95.50
2018-07-19T04:16:03.739Z,94.70
2018-07-19T04:18:37.104Z,95.00
2018-07-19T04:21:10.143Z,94.80
2018-07-19T04:23:42.560Z,94.60
2018-07-19T04:26:15.235Z,94.30
2018-07-19T04:28:47.705Z,94.00
2018-07-19T04:31:20.374Z,94.00
2018-07-19T04:33:53.570Z,92.80
2018-07-19T04:36:26.112Z,92.90
2018-07-19T04:38:58.185Z,92.60
2018-07-19T04:41:40.732Z,92.60
2018-07-19T04:44:12.689Z,91.60
2018-07-19T04:46:55.715Z,91.40
2018-07-19T04:52:09.250Z,91.20
2018-07-19T04:54:41.164Z,91.20
2018-07-19T04:57:12.495Z,90.90
2018-07-19T04:59:45.747Z,90.50
2018-07-19T05:04:56.837Z,89.90
2018-07-19T05:07:28.819Z,89.20
2018-07-19T05:10:01.012Z,88.60
2018-07-19T05:12:33.999Z,88.40
2018-07-19T05:17:40.981Z,87.90
2018-07-19T05:22:45.504Z,87.60
2018-07-19T05:25:18.483Z,87.00
2018-07-19T05:27:50.801Z,86.60
2018-07-19T05:30:22.798Z,86.10
2018-07-19T05:32:54.837Z,85.50
2018-07-19T05:37:57.179Z,85.40
2018-07-19T05:40:28.824Z,85.00
2018-07-19T05:43:01.551Z,84.50
2018-07-19T05:45:33.578Z,84.30
2018-07-19T05:48:02.759Z,84.00
2018-07-19T05:50:32.289Z,83.90
2018-07-19T05:53:01.467Z,83.50
2018-07-19T05:55:30.721Z,83.20
2018-07-19T05:58:00.109Z,82.40
2018-07-19T06:00:31.627Z,81.80
2018-07-19T06:03:00.909Z,80.80
2018-07-19T06:05:29.779Z,79.40
2018-07-19T06:07:58.561Z,78.80
2018-07-19T06:10:27.401Z,78.70
2018-07-19T06:12:56.127Z,77.80
2018-07-19T06:15:24.935Z,78.10
2018-07-19T06:20:24.779Z,78.10
2018-07-19T06:22:53.627Z,77.60
2018-07-19T06:25:22.702Z,77.30
2018-07-19T06:27:55.744Z,76.60
2018-07-19T06:30:24.672Z,76.10
2018-07-19T06:32:53.836Z,75.40
2018-07-19T06:35:23.767Z,75.30
2018-07-19T06:37:52.601Z,75.10
2018-07-19T06:40:21.479Z,74.60
2018-07-19T06:42:51.148Z,74.50
2018-07-19T06:45:19.981Z,74.20
2018-07-19T06:47:53.040Z,73.90
2018-07-19T06:50:21.910Z,73.40
2018-07-19T06:52:56.633Z,73.40
2018-07-19T06:55:25.727Z,73.30
2018-07-19T06:57:55.771Z,73.40
2018-07-19T07:00:28.795Z,73.30
2018-07-19T07:02:58.357Z,73.50
2018-07-19T07:05:27.433Z,73.80
2018-07-19T07:07:56.441Z,73.20
2018-07-19T07:10:25.942Z,73.00
2018-07-19T07:12:55.896Z,72.70
2018-07-19T07:15:25.067Z,72.70
2018-07-19T07:17:53.832Z,72.90
2018-07-19T07:20:23.012Z,72.00
2018-07-19T07:22:53.016Z,71.30
2018-07-19T07:25:22.336Z,70.10
2018-07-19T07:27:52.229Z,69.60
2018-07-19T07:30:21.132Z,69.60
2018-07-19T07:32:52.079Z,68.90
2018-07-19T07:35:20.921Z,68.10
2018-07-19T07:37:50.719Z,67.40
2018-07-19T07:40:19.551Z,67.50
2018-07-19T07:45:16.691Z,66.00
2018-07-19T07:47:45.487Z,65.90
2018-07-19T07:52:42.787Z,66.20
2018-07-19T07:55:11.705Z,65.50
2018-07-19T07:57:40.641Z,65.70
2018-07-19T08:00:09.677Z,64.90
2018-07-19T08:02:38.515Z,65.20
2018-07-19T08:05:07.405Z,65.10
2018-07-19T08:07:36.606Z,64.90
2018-07-19T08:10:05.593Z,64.30
2018-07-19T08:12:37.473Z,64.50
2018-07-19T08:15:06.463Z,64.40
2018-07-19T08:20:04.995Z,65.00
2018-07-19T08:22:38.354Z,64.90
2018-07-19T08:25:07.875Z,65.20
2018-07-19T08:27:36.836Z,65.60
2018-07-19T08:32:34.175Z,65.30
2018-07-19T08:35:06.561Z,65.40
2018-07-19T08:37:35.298Z,64.90
2018-07-19T08:40:05.424Z,65.50
2018-07-19T08:42:34.295Z,65.70
2018-07-19T08:45:06.229Z,64.30
2018-07-19T08:47:35.082Z,63.80
2018-07-19T08:50:03.928Z,63.40
2018-07-19T08:52:32.689Z,63.50
2018-07-19T08:55:01.622Z,63.80
2018-07-19T08:57:30.414Z,62.90
2018-07-19T08:59:59.451Z,62.60
2018-07-19T09:07:49.456Z,62.70
2018-07-19T09:10:18.408Z,62.60
2018-07-19T09:12:51.149Z,62.10
2018-07-19T09:15:21.108Z,62.20
2018-07-19T09:17:49.965Z,62.20
2018-07-19T09:20:18.755Z,61.90
2018-07-19T09:22:47.594Z,60.60
2018-07-19T09:25:16.607Z,60.50
2018-07-19T09:27:46.453Z,58.40
2018-07-19T09:30:19.947Z,58.30
2018-07-19T09:32:48.892Z,56.90
2018-07-19T09:35:18.262Z,56.20
2018-07-19T09:37:50.822Z,55.40
2018-07-19T09:40:19.596Z,55.80
2018-07-19T09:42:49.046Z,55.80
2018-07-19T09:45:18.417Z,55.80
2018-07-19T09:47:47.532Z,55.30
2018-07-19T09:50:16.354Z,54.50
2018-07-19T09:52:45.155Z,53.80
2018-07-19T09:55:14.057Z,53.50
2018-07-19T09:57:50.437Z,53.40
2018-07-19T10:00:24.432Z,52.00
2018-07-19T10:02:53.216Z,52.00
2018-07-19T10:05:22.349Z,51.60
2018-07-19T10:07:51.736Z,51.70
2018-07-19T10:10:20.452Z,51.20
2018-07-19T10:12:49.297Z,51.40
2018-07-19T10:15:18.085Z,51.00
2018-07-19T10:17:46.835Z,50.80
2018-07-19T10:20:17.654Z,49.90
2018-07-19T10:22:46.523Z,50.50
2018-07-19T10:25:15.418Z,50.40
2018-07-19T10:27:44.713Z,50.50
2018-07-19T10:30:17.426Z,50.80
2018-07-19T10:32:46.372Z,50.50
2018-07-19T10:35:15.243Z,50.50
2018-07-19T10:37:44.112Z,49.50
2018-07-19T10:40:12.924Z,49.70
2018-07-19T10:42:41.721Z,50.50
2018-07-19T10:45:10.603Z,52.10
2018-07-19T10:47:39.497Z,53.20
2018-07-19T10:50:08.217Z,53.80
2018-07-19T10:52:37.036Z,53.90
2018-07-19T10:55:06.005Z,53.30
2018-07-19T10:57:34.697Z,53.70
2018-07-19T11:00:03.502Z,53.80
2018-07-19T11:02:32.427Z,51.80
2018-07-19T11:05:02.312Z,50.40
2018-07-19T11:07:31.052Z,50.00
2018-07-19T11:10:01.092Z,49.10
2018-07-19T11:12:29.825Z,48.70
2018-07-19T11:14:58.563Z,49.90
2018-07-19T11:17:27.319Z,51.10
2018-07-19T11:19:56.033Z,51.70
2018-07-19T11:22:24.991Z,50.30
2018-07-19T11:24:53.782Z,49.70
2018-07-19T11:27:23.583Z,49.20
2018-07-19T11:29:52.355Z,48.40
2018-07-19T11:32:21.064Z,48.60
2018-07-19T11:34:50.066Z,47.70
2018-07-19T11:37:20.115Z,46.90
2018-07-19T11:39:49.328Z,45.90
2018-07-19T11:42:19.095Z,45.30
2018-07-19T11:44:47.988Z,45.10
2018-07-19T11:47:16.657Z,45.50
2018-07-19T11:49:45.460Z,44.70
2018-07-19T11:52:14.323Z,44.90
2018-07-19T11:54:43.058Z,44.60
2018-07-19T11:57:11.967Z,45.50
2018-07-19T11:59:40.708Z,46.20
2018-07-19T12:02:09.872Z,45.20
2018-07-19T12:04:38.623Z,45.90
2018-07-19T12:07:08.381Z,45.30
2018-07-19T12:09:41.272Z,45.10
2018-07-19T12:12:10.414Z,44.70
2018-07-19T12:14:39.655Z,44.70
2018-07-19T12:17:09.056Z,44.10
2018-07-19T12:19:37.911Z,43.90
2018-07-19T12:22:07.099Z,43.60
2018-07-19T12:24:35.754Z,43.70
2018-07-19T12:27:06.914Z,44.20
2018-07-19T12:29:35.844Z,44.30
2018-07-19T12:32:08.653Z,44.50
2018-07-19T12:34:37.321Z,44.30
2018-07-19T12:37:07.465Z,44.40
2018-07-19T12:39:36.166Z,43.90
2018-07-19T12:42:06.555Z,43.80
2018-07-19T12:44:35.433Z,43.80
2018-07-19T12:47:05.195Z,43.40
2018-07-19T12:49:34.123Z,43.50
2018-07-19T12:52:04.598Z,43.40
2018-07-19T12:54:34.051Z,43.60
2018-07-19T12:57:02.969Z,43.90
2018-07-19T12:59:31.783Z,43.60
2018-07-19T13:02:02.680Z,43.90
2018-07-19T13:04:31.800Z,44.20
2018-07-19T13:07:00.655Z,44.30
2018-07-19T13:09:29.693Z,44.20
2018-07-19T13:12:04.983Z,44.30
2018-07-19T13:14:34.966Z,46.10
2018-07-19T13:19:47.326Z,47.70
2018-07-19T13:22:16.669Z,48.00
2018-07-19T13:24:45.726Z,48.20
2018-07-19T13:27:14.558Z,48.30
2018-07-19T13:29:43.330Z,47.50
2018-07-19T13:32:16.696Z,46.10
2018-07-19T13:34:46.233Z,45.20
2018-07-19T13:37:14.932Z,44.40
2018-07-19T13:39:44.393Z,44.70
2018-07-19T13:42:13.242Z,43.60
2018-07-19T13:44:42.195Z,43.20
2018-07-19T13:47:11.953Z,43.00
2018-07-19T13:49:41.291Z,43.00
2018-07-19T13:52:13.586Z,43.60
2018-07-19T13:54:47.387Z,43.80
2018-07-19T13:57:17.354Z,43.50
2018-07-19T13:59:50.234Z,42.80
2018-07-19T14:02:19.644Z,43.20
2018-07-19T14:04:53.101Z,42.60
2018-07-19T14:07:21.871Z,42.60
2018-07-19T14:09:50.669Z,42.80
2018-07-19T14:12:31.667Z,42.60
2018-07-19T14:15:00.591Z,42.70
2018-07-19T14:17:35.315Z,42.50
2018-07-19T14:20:04.864Z,42.70
2018-07-19T14:22:33.752Z,42.60
2018-07-19T14:25:05.104Z,43.40
2018-07-19T14:27:34.706Z,42.90
2018-07-19T14:30:14.654Z,41.90
2018-07-19T14:32:43.373Z,42.40
2018-07-19T14:35:13.901Z,42.00
2018-07-19T14:37:44.368Z,42.50
2018-07-19T14:40:14.076Z,43.60
2018-07-19T14:42:49.163Z,43.80
2018-07-19T14:45:19.807Z,43.20
2018-07-19T14:47:48.681Z,43.30
2018-07-19T14:50:17.615Z,42.90
2018-07-19T14:52:46.559Z,42.60
2018-07-19T14:55:23.576Z,42.70
2018-07-19T14:57:52.360Z,42.70
2018-07-19T15:00:21.173Z,43.00
2018-07-19T15:02:50.048Z,43.50
2018-07-19T15:05:20.686Z,44.10
2018-07-19T15:07:49.440Z,44.60
2018-07-19T15:10:18.324Z,45.40
2018-07-19T15:12:47.071Z,45.80
2018-07-19T15:15:16.654Z,45.30
2018-07-19T15:17:46.644Z,45.20
2018-07-19T15:20:16.340Z,44.40
2018-07-19T15:22:52.136Z,44.60
2018-07-19T15:25:21.026Z,45.00
2018-07-19T15:27:55.645Z,45.30
2018-07-19T15:30:24.665Z,45.40
2018-07-19T15:32:56.404Z,46.00
2018-07-19T15:35:29.566Z,45.90
2018-07-19T15:37:58.414Z,46.60
2018-07-19T15:40:29.175Z,46.70
2018-07-19T15:43:01.893Z,46.30
2018-07-19T15:45:31.057Z,46.70
2018-07-19T15:47:59.915Z,47.40
2018-07-19T15:50:28.805Z,48.00
2018-07-19T15:52:57.580Z,47.90
2018-07-19T15:55:26.644Z,48.30
2018-07-19T15:57:55.598Z,48.30
2018-07-19T16:00:25.146Z,47.80
2018-07-19T16:02:55.263Z,47.20
2018-07-19T16:05:24.201Z,46.40
2018-07-19T16:07:55.065Z,45.90
2018-07-19T16:10:23.829Z,45.80
2018-07-19T16:12:52.545Z,47.00
2018-07-19T16:15:22.885Z,48.20
2018-07-19T16:17:53.113Z,48.30
2018-07-19T16:20:22.010Z,48.80
2018-07-19T16:22:52.559Z,49.50
2018-07-19T16:25:22.426Z,49.60
2018-07-19T16:27:52.034Z,50.10
2018-07-19T16:30:21.811Z,49.60
2018-07-19T16:32:50.696Z,49.60
2018-07-19T16:35:22.958Z,49.70
2018-07-19T16:37:55.189Z,49.70
2018-07-19T16:40:29.865Z,50.10
2018-07-19T16:43:04.059Z,50.30
2018-07-19T16:45:37.373Z,50.70
2018-07-19T16:50:46.214Z,51.40
2018-07-19T16:53:38.824Z,51.90
2018-07-19T16:56:10.209Z,51.90
2018-07-19T16:58:48.217Z,51.80
2018-07-19T17:01:23.412Z,51.60
2018-07-19T17:03:56.898Z,51.60
2018-07-19T17:06:36.586Z,51.80
2018-07-19T17:09:12.292Z,52.70
2018-07-19T17:11:49.542Z,53.30
2018-07-19T17:14:25.626Z,53.70
2018-07-19T17:19:26.766Z,53.40
2018-07-19T17:21:58.248Z,53.30
2018-07-19T17:24:32.491Z,53.20
2018-07-19T17:27:06.501Z,52.90
2018-07-19T17:29:38.188Z,53.40
2018-07-19T17:32:13.319Z,53.20
2018-07-19T17:34:49.004Z,53.20
2018-07-19T17:37:38.842Z,52.50
2018-07-19T17:40:34.089Z,51.30
2018-07-19T17:43:08.883Z,50.10
2018-07-19T17:45:42.224Z,48.70
2018-07-19T17:48:27.292Z,48.00
2018-07-19T17:50:57.160Z,48.20
2018-07-19T17:53:28.676Z,47.60
2018-07-19T17:55:57.966Z,47.00
2018-07-19T17:58:30.831Z,46.80
2018-07-19T18:01:00.629Z,47.00
2018-07-19T18:03:30.468Z,47.20
2018-07-19T18:06:01.286Z,46.90
2018-07-19T18:08:30.030Z,47.80
2018-07-19T18:11:05.226Z,48.40
2018-07-19T18:13:35.496Z,48.80
2018-07-19T18:16:08.501Z,50.10
2018-07-19T18:18:39.475Z,51.30
2018-07-19T18:21:12.262Z,51.90
2018-07-19T18:23:41.987Z,51.40
2018-07-19T18:26:11.804Z,51.70
2018-07-19T18:28:44.946Z,51.90
2018-07-19T18:31:16.076Z,52.00
2018-07-19T18:33:52.926Z,52.40
2018-07-19T18:36:24.217Z,53.30
2018-07-19T18:38:57.354Z,53.60
2018-07-19T18:41:30.569Z,53.60
2018-07-19T18:44:04.683Z,53.80
2018-07-19T18:46:37.909Z,55.10
2018-07-19T18:49:17.005Z,54.50
2018-07-19T18:51:55.234Z,55.10
2018-07-19T18:54:27.973Z,55.70
2018-07-19T18:57:01.090Z,55.90
2018-07-19T18:59:36.602Z,56.60
2018-07-19T19:02:10.457Z,56.20
2018-07-19T19:04:53.736Z,56.80
2018-07-19T19:07:24.888Z,56.90
2018-07-19T19:10:16.441Z,57.20
2018-07-19T19:13:00.084Z,57.70
2018-07-19T19:15:33.088Z,58.90
2018-07-19T19:18:03.654Z,59.50
2018-07-19T19:20:34.400Z,60.10
2018-07-19T19:23:04.972Z,60.50
2018-07-19T19:25:36.732Z,60.80
2018-07-19T19:28:06.725Z,61.10
2018-07-19T19:30:37.379Z,61.10
2018-07-19T19:33:07.763Z,61.50
2018-07-19T19:35:37.574Z,61.90
2018-07-19T19:38:08.647Z,62.30
2018-07-19T19:40:39.428Z,62.70
2018-07-19T19:43:10.136Z,63.00
2018-07-19T19:45:42.119Z,63.40
2018-07-19T19:48:12.601Z,63.70
2018-07-19T19:50:43.241Z,63.80
2018-07-19T19:53:14.252Z,64.00
2018-07-19T19:55:45.424Z,64.40
2018-07-19T19:58:15.301Z,64.80
2018-07-19T20:00:46.327Z,65.10
2018-07-19T20:03:22.868Z,65.20
2018-07-19T20:05:53.877Z,65.30
2018-07-19T20:08:28.179Z,65.30
2018-07-19T20:11:08.188Z,65.50
2018-07-19T20:13:40.923Z,65.70
2018-07-19T20:16:21.699Z,66.00
2018-07-19T20:18:57.490Z,66.30
2018-07-19T20:21:35.916Z,66.40
2018-07-19T20:24:15.557Z,66.70
2018-07-19T20:27:59.770Z,66.80
2018-07-19T20:30:42.263Z,67.10
2018-07-19T20:33:27.290Z,67.40
2018-07-19T20:36:00.434Z,67.80
2018-07-19T20:38:36.369Z,67.90
2018-07-19T20:41:07.431Z,68.30
2018-07-19T20:43:43.916Z,68.50
2018-07-19T20:46:14.645Z,69.00
2018-07-19T20:48:45.888Z,68.90
2018-07-19T20:51:16.046Z,68.80
2018-07-19T20:53:46.839Z,68.60
2018-07-19T20:56:17.778Z,68.40
2018-07-19T20:58:48.131Z,68.30
2018-07-19T21:01:29.709Z,68.30
2018-07-19T21:04:01.399Z,68.70
2018-07-19T21:06:34.582Z,68.70
2018-07-19T21:09:11.097Z,68.70
2018-07-19T21:11:44.003Z,68.70
2018-07-19T21:14:15.616Z,68.70
2018-07-19T21:16:46.747Z,69.20
2018-07-19T21:21:52.903Z,69.30
2018-07-19T21:24:23.181Z,69.50
2018-07-19T21:26:53.595Z,69.50
2018-07-19T21:31:54.125Z,69.90
2018-07-19T21:34:24.401Z,70.00
2018-07-19T21:36:54.377Z,70.30
2018-07-19T21:41:55.010Z,70.60
2018-07-19T21:44:26.097Z,70.80
2018-07-19T21:46:56.508Z,71.00
2018-07-19T21:51:56.473Z,71.10
2018-07-19T21:54:26.412Z,70.90
2018-07-19T21:57:03.944Z,70.90
2018-07-19T21:59:34.502Z,70.90
2018-07-19T22:02:05.422Z,70.60
2018-07-19T22:04:35.634Z,70.40
2018-07-19T22:07:06.400Z,70.30
2018-07-19T22:09:36.822Z,70.70
2018-07-19T22:12:07.695Z,70.10
2018-07-19T22:14:38.243Z,69.40
2018-07-19T22:17:08.537Z,69.30
2018-07-19T22:19:38.432Z,69.80
2018-07-19T22:24:38.717Z,69.60
2018-07-19T22:27:09.197Z,70.10
2018-07-19T22:29:39.767Z,70.40
2018-07-19T22:32:10.507Z,70.60
2018-07-19T22:34:41.273Z,70.80
2018-07-19T22:37:12.014Z,71.10
2018-07-19T22:39:42.300Z,71.70
2018-07-19T22:42:26.474Z,71.50
2018-07-19T22:44:56.862Z,71.90
2018-07-19T22:47:26.895Z,72.10
2018-07-19T22:49:59.237Z,72.10
2018-07-19T22:52:30.879Z,72.10
2018-07-19T22:55:01.692Z,72.70
2018-07-19T22:57:31.906Z,73.10
2018-07-19T23:00:02.301Z,73.20
2018-07-19T23:02:32.008Z,73.20
2018-07-19T23:05:02.330Z,73.70
2018-07-19T23:07:33.146Z,73.80
2018-07-19T23:10:03.581Z,73.70
2018-07-19T23:12:35.999Z,74.50
2018-07-19T23:15:06.570Z,75.00
2018-07-19T23:17:37.857Z,74.80
2018-07-19T23:20:08.692Z,75.00
2018-07-19T23:22:40.090Z,74.60
2018-07-19T23:25:14.877Z,74.80
2018-07-19T23:27:45.885Z,75.40
2018-07-19T23:30:16.169Z,75.70
2018-07-19T23:32:52.716Z,76.10
2018-07-19T23:35:37.916Z,76.40
2018-07-19T23:38:13.389Z,76.70
2018-07-19T23:40:46.340Z,77.90
2018-07-19T23:43:21.573Z,76.40
2018-07-19T23:46:03.821Z,76.40
2018-07-19T23:48:35.111Z,76.70
2018-07-19T23:51:06.436Z,76.80
2018-07-19T23:53:38.016Z,78.30
2018-07-19T23:56:09.364Z,78.70
2018-07-19T23:58:40.965Z,79.40
